createdAt,value
2022-12-07T00:00:44.536Z,11.25
2022-12-07T00:03:11.921Z,11.50
2022-12-07T00:05:39.141Z,11.93
2022-12-07T00:08:06.546Z,12.45
2022-12-07T00:10:33.766Z,11.02
2022-12-07T00:13:00.990Z,12.30
2022-12-07T00:15:28.180Z,8.85
2022-12-07T00:17:55.487Z,11.15
2022-12-07T00:20:22.662Z,10.20
2022-12-07T00:22:49.934Z,9.15
2022-12-07T00:25:17.095Z,10.95
2022-12-07T00:27:44.267Z,10.90
2022-12-07T00:30:11.446Z,10.48
2022-12-07T00:32:38.778Z,11.20
2022-12-07T00:35:05.966Z,10.27
2022-12-07T00:37:33.148Z,10.65
2022-12-07T00:40:00.576Z,10.30
2022-12-07T00:42:27.937Z,7.90
2022-12-07T00:44:55.167Z,10.93
2022-12-07T00:47:22.419Z,10.30
2022-12-07T00:49:49.651Z,10.77
2022-12-07T00:52:16.794Z,8.82
2022-12-07T00:54:44.124Z,10.90
2022-12-07T00:57:11.313Z,11.52
2022-12-07T00:59:38.497Z,9.52
2022-12-07T01:02:05.749Z,7.65
2022-12-07T01:04:32.960Z,11.77
2022-12-07T01:07:00.203Z,10.48
2022-12-07T01:09:27.551Z,11.48
2022-12-07T01:11:54.830Z,10.20
2022-12-07T01:14:22.063Z,9.25
2022-12-07T01:16:49.371Z,11.23
2022-12-07T01:19:17.142Z,7.55
2022-12-07T01:21:44.412Z,11.00
2022-12-07T01:24:11.827Z,10.73
2022-12-07T01:26:39.036Z,9.85
2022-12-07T01:29:06.297Z,10.45
2022-12-07T01:31:33.513Z,9.63
2022-12-07T01:34:00.802Z,11.40
2022-12-07T01:36:28.083Z,10.80
2022-12-07T01:38:57.569Z,10.10
2022-12-07T01:41:24.921Z,12.52
2022-12-07T01:43:52.307Z,11.15
2022-12-07T01:46:19.647Z,11.30
2022-12-07T01:48:46.852Z,10.38
2022-12-07T01:51:14.156Z,11.25
2022-12-07T01:53:41.357Z,12.18
2022-12-07T01:56:09.633Z,11.00
2022-12-07T01:58:36.870Z,11.10
2022-12-07T02:01:04.202Z,10.15
2022-12-07T02:03:31.390Z,9.85
2022-12-07T02:06:00.291Z,11.10
2022-12-07T02:08:27.624Z,10.18
2022-12-07T02:10:54.894Z,10.88
2022-12-07T02:13:25.995Z,11.20
2022-12-07T02:15:53.329Z,10.70
2022-12-07T02:18:20.492Z,9.88
2022-12-07T02:20:47.708Z,11.35
2022-12-07T02:23:14.875Z,12.82
2022-12-07T02:25:42.103Z,13.63
2022-12-07T02:28:09.356Z,13.02
2022-12-07T02:30:36.626Z,9.07
2022-12-07T02:33:03.830Z,12.77
2022-12-07T02:35:31.034Z,11.20
2022-12-07T02:37:58.184Z,12.25
2022-12-07T02:40:25.411Z,12.20
2022-12-07T02:42:52.576Z,10.93
2022-12-07T02:45:19.897Z,11.57
2022-12-07T02:47:47.048Z,11.60
2022-12-07T02:50:14.297Z,10.20
2022-12-07T02:52:41.534Z,10.88
2022-12-07T02:55:08.753Z,11.57
2022-12-07T02:57:35.968Z,8.10
2022-12-07T03:00:03.445Z,10.57
2022-12-07T03:02:30.871Z,11.48
2022-12-07T03:04:58.169Z,10.60
2022-12-07T03:07:25.348Z,12.80
2022-12-07T03:09:52.596Z,10.93
2022-12-07T03:12:19.730Z,11.05
2022-12-07T03:14:46.960Z,11.32
2022-12-07T03:17:14.131Z,12.15
2022-12-07T03:19:41.403Z,12.18
2022-12-07T03:22:08.663Z,11.32
2022-12-07T03:24:35.871Z,12.52
2022-12-07T03:27:03.019Z,11.52
2022-12-07T03:29:30.190Z,13.30
2022-12-07T03:31:57.484Z,12.90
2022-12-07T03:34:24.625Z,12.57
2022-12-07T03:36:51.980Z,13.18
2022-12-07T03:39:19.418Z,13.95
2022-12-07T03:41:46.685Z,12.15
2022-12-07T03:44:13.894Z,12.48
2022-12-07T03:46:41.142Z,13.30
2022-12-07T03:49:08.572Z,15.10
2022-12-07T03:51:35.822Z,12.65
2022-12-07T03:54:02.985Z,13.55
2022-12-07T03:56:30.220Z,13.32
2022-12-07T03:58:57.470Z,15.98
2022-12-07T04:01:24.993Z,12.73
2022-12-07T04:03:52.347Z,12.02
2022-12-07T04:06:19.591Z,12.20
2022-12-07T04:08:46.824Z,13.40
2022-12-07T04:11:14.043Z,15.00
2022-12-07T04:14:01.455Z,11.50
2022-12-07T04:16:28.773Z,11.95
2022-12-07T04:18:55.961Z,11.27
2022-12-07T04:21:23.259Z,11.48
2022-12-07T04:23:50.456Z,10.65
2022-12-07T04:26:17.717Z,12.13
2022-12-07T04:28:44.924Z,11.65
2022-12-07T04:31:12.261Z,11.30
2022-12-07T04:33:39.422Z,12.48
2022-12-07T04:36:06.684Z,12.85
2022-12-07T04:38:34.024Z,9.50
2022-12-07T04:41:01.239Z,12.55
2022-12-07T04:43:28.457Z,13.02
2022-12-07T04:45:55.637Z,11.77
2022-12-07T04:48:22.849Z,12.57
2022-12-07T04:50:50.741Z,13.60
2022-12-07T04:53:17.984Z,12.27
2022-12-07T04:55:45.140Z,10.98
2022-12-07T04:58:12.448Z,12.98
2022-12-07T05:00:39.640Z,12.52
2022-12-07T05:03:06.935Z,11.90
2022-12-07T05:05:34.160Z,10.63
2022-12-07T05:08:01.461Z,10.90
2022-12-07T05:10:28.757Z,10.75
2022-12-07T05:12:55.989Z,11.25
2022-12-07T05:15:23.157Z,10.85
2022-12-07T05:17:50.413Z,11.90
2022-12-07T05:20:17.639Z,11.25
2022-12-07T05:22:44.850Z,12.60
2022-12-07T05:25:12.047Z,13.85
2022-12-07T05:27:39.226Z,13.02
2022-12-07T05:30:06.359Z,12.50
2022-12-07T05:32:33.619Z,14.32
2022-12-07T05:35:00.826Z,12.48
2022-12-07T05:37:27.989Z,11.63
2022-12-07T05:39:55.124Z,13.10
2022-12-07T05:42:22.483Z,12.07
2022-12-07T05:44:49.824Z,10.45
2022-12-07T05:47:16.997Z,8.57
2022-12-07T05:49:44.639Z,11.32
2022-12-07T05:52:11.841Z,10.25
2022-12-07T05:54:39.044Z,10.88
2022-12-07T05:57:06.210Z,9.43
2022-12-07T05:59:33.978Z,10.38
2022-12-07T06:02:01.175Z,9.90
2022-12-07T06:04:28.492Z,10.93
2022-12-07T06:06:55.722Z,11.90
2022-12-07T06:09:22.923Z,10.75
2022-12-07T06:12:08.854Z,10.77
2022-12-07T06:14:36.135Z,10.50
2022-12-07T06:17:03.491Z,11.15
2022-12-07T06:19:30.762Z,9.93
2022-12-07T06:21:58.010Z,10.65
2022-12-07T06:24:25.129Z,11.10
2022-12-07T06:26:52.463Z,10.00
2022-12-07T06:29:20.117Z,9.90
2022-12-07T06:31:47.343Z,10.60
2022-12-07T06:34:14.611Z,10.02
2022-12-07T06:36:41.949Z,9.90
2022-12-07T06:39:10.096Z,10.60
2022-12-07T06:41:37.821Z,10.15
2022-12-07T06:44:04.960Z,10.43
2022-12-07T06:46:32.288Z,10.00
2022-12-07T06:48:59.775Z,10.15
2022-12-07T06:51:27.091Z,10.68
2022-12-07T06:53:54.286Z,10.05
2022-12-07T06:56:21.564Z,10.65
2022-12-07T06:58:48.812Z,8.25
2022-12-07T07:01:16.098Z,9.63
2022-12-07T07:03:43.392Z,10.32
2022-12-07T07:06:10.561Z,9.75
2022-12-07T07:08:37.797Z,9.45
2022-12-07T07:11:05.054Z,11.80
2022-12-07T07:13:32.360Z,8.98
2022-12-07T07:15:59.529Z,9.70
2022-12-07T07:18:27.048Z,10.40
2022-12-07T07:20:54.211Z,11.82
2022-12-07T07:23:21.412Z,9.80
2022-12-07T07:25:48.601Z,9.85
2022-12-07T07:28:16.043Z,8.85
2022-12-07T07:30:43.338Z,10.40
2022-12-07T07:33:10.538Z,11.10
2022-12-07T07:35:37.754Z,9.32
2022-12-07T07:38:04.897Z,10.32
2022-12-07T07:40:32.120Z,9.57
2022-12-07T07:42:59.265Z,10.60
2022-12-07T07:45:26.710Z,10.15
2022-12-07T07:47:53.924Z,8.73
2022-12-07T07:50:21.182Z,9.80
2022-12-07T07:52:48.761Z,9.15
2022-12-07T07:55:18.303Z,8.90
2022-12-07T07:57:51.183Z,8.27
2022-12-07T08:00:20.231Z,9.18
2022-12-07T08:02:47.784Z,10.32
2022-12-07T08:05:15.387Z,9.35
2022-12-07T08:07:42.827Z,10.57
2022-12-07T08:10:10.230Z,8.73
2022-12-07T08:12:37.530Z,9.38
2022-12-07T08:15:04.769Z,11.10
2022-12-07T08:17:32.130Z,10.48
2022-12-07T08:19:59.509Z,9.88
2022-12-07T08:22:26.895Z,10.27
2022-12-07T08:24:54.085Z,10.45
2022-12-07T08:27:21.329Z,9.18
2022-12-07T08:29:48.503Z,11.45
2022-12-07T08:32:15.752Z,11.60
2022-12-07T08:34:42.967Z,11.32
2022-12-07T08:37:10.153Z,11.15
2022-12-07T08:39:37.303Z,9.85
2022-12-07T08:42:04.527Z,11.82
2022-12-07T08:44:31.905Z,9.70
2022-12-07T08:46:59.158Z,10.48
2022-12-07T08:49:26.327Z,7.50
2022-12-07T08:51:53.543Z,10.50
2022-12-07T08:54:20.796Z,9.88
2022-12-07T08:56:48.077Z,10.40
2022-12-07T08:59:15.266Z,10.10
2022-12-07T09:01:42.625Z,10.50
2022-12-07T09:04:09.891Z,9.52
2022-12-07T09:06:37.237Z,10.38
2022-12-07T09:09:04.529Z,9.38
2022-12-07T09:11:31.814Z,9.77
2022-12-07T09:13:58.995Z,10.95
2022-12-07T09:16:26.252Z,10.48
2022-12-07T09:18:53.478Z,11.65
2022-12-07T09:21:20.713Z,8.90
2022-12-07T09:23:47.888Z,8.23
2022-12-07T09:26:15.138Z,8.38
2022-12-07T09:28:42.299Z,7.30
2022-12-07T09:31:26.134Z,7.85
2022-12-07T09:33:53.695Z,7.35
2022-12-07T09:36:20.905Z,7.32
2022-12-07T09:38:48.099Z,7.93
2022-12-07T09:41:16.664Z,7.78
2022-12-07T09:43:43.938Z,6.85
2022-12-07T09:46:11.189Z,7.22
2022-12-07T09:48:38.504Z,8.77
2022-12-07T09:51:05.819Z,7.55
2022-12-07T09:53:32.960Z,5.68
2022-12-07T09:56:00.188Z,8.60
2022-12-07T09:58:27.555Z,7.13
2022-12-07T10:00:54.793Z,7.50
2022-12-07T10:03:22.345Z,7.40
2022-12-07T10:05:49.671Z,5.97
2022-12-07T10:08:18.250Z,6.90
2022-12-07T10:10:45.659Z,6.85
2022-12-07T10:13:12.833Z,6.00
2022-12-07T10:15:40.062Z,5.05
2022-12-07T10:18:07.263Z,5.32
2022-12-07T10:20:34.668Z,6.85
2022-12-07T10:23:01.907Z,6.55
2022-12-07T10:25:29.108Z,6.85
2022-12-07T10:27:57.480Z,6.43
2022-12-07T10:30:24.680Z,7.90
2022-12-07T10:32:51.811Z,7.68
2022-12-07T10:35:19.096Z,7.22
2022-12-07T10:37:46.784Z,8.15
2022-12-07T10:40:14.017Z,8.52
2022-12-07T10:42:41.222Z,8.98
2022-12-07T10:45:08.617Z,8.55
2022-12-07T10:47:35.822Z,8.85
2022-12-07T10:50:03.048Z,9.45
2022-12-07T10:52:30.263Z,8.63
2022-12-07T10:54:57.460Z,9.45
2022-12-07T10:57:24.697Z,9.35
2022-12-07T10:59:51.860Z,8.75
2022-12-07T11:02:22.328Z,7.90
2022-12-07T11:04:50.173Z,7.20
2022-12-07T11:07:17.317Z,8.82
2022-12-07T11:10:07.856Z,8.48
2022-12-07T11:12:31.742Z,8.40
2022-12-07T11:14:58.947Z,12.18
2022-12-07T11:17:26.219Z,8.30
2022-12-07T11:19:53.396Z,8.63
2022-12-07T11:22:20.579Z,10.90
2022-12-07T11:24:47.766Z,9.32
2022-12-07T11:27:15.026Z,9.70
2022-12-07T11:29:42.255Z,11.20
2022-12-07T11:32:09.469Z,12.77
2022-12-07T11:34:36.960Z,10.70
2022-12-07T11:37:05.976Z,11.23
2022-12-07T11:39:33.099Z,10.48
2022-12-07T11:42:00.478Z,8.73
2022-12-07T11:44:27.819Z,10.75
2022-12-07T11:46:55.132Z,10.15
2022-12-07T11:49:22.366Z,9.90
2022-12-07T11:51:49.538Z,11.00
2022-12-07T11:54:16.764Z,10.25
2022-12-07T11:56:43.976Z,9.93
2022-12-07T11:59:11.318Z,9.05
2022-12-07T12:01:38.633Z,8.40
2022-12-07T12:04:05.836Z,8.25
2022-12-07T12:06:35.994Z,8.73
2022-12-07T12:11:51.676Z,11.30
2022-12-07T12:14:34.900Z,9.80
2022-12-07T12:17:02.916Z,8.75
2022-12-07T12:19:30.226Z,10.70
2022-12-07T12:21:58.425Z,9.60
2022-12-07T12:24:25.849Z,10.05
2022-12-07T12:26:53.064Z,9.82
2022-12-07T12:29:20.248Z,9.85
2022-12-07T12:31:47.459Z,9.95
2022-12-07T12:34:14.748Z,9.60
2022-12-07T12:36:42.005Z,11.00
2022-12-07T12:39:09.350Z,10.85
2022-12-07T12:41:36.789Z,10.20
2022-12-07T12:44:03.929Z,9.52
2022-12-07T12:46:31.485Z,11.48
2022-12-07T12:48:58.600Z,10.15
2022-12-07T12:51:25.813Z,10.15
2022-12-07T12:53:52.953Z,11.50
2022-12-07T12:56:20.300Z,11.02
2022-12-07T12:58:48.383Z,10.18
2022-12-07T13:01:15.835Z,10.98
2022-12-07T13:03:43.092Z,10.45
2022-12-07T13:06:10.249Z,9.55
2022-12-07T13:08:37.472Z,9.32
2022-12-07T13:11:05.621Z,10.75
2022-12-07T13:13:32.823Z,9.65
2022-12-07T13:16:00.050Z,9.70
2022-12-07T13:18:27.240Z,9.77
2022-12-07T13:20:54.484Z,11.52
2022-12-07T13:23:21.992Z,10.13
2022-12-07T13:25:49.151Z,11.27
2022-12-07T13:28:16.487Z,10.80
2022-12-07T13:30:43.737Z,10.85
2022-12-07T13:33:11.043Z,12.40
2022-12-07T13:35:41.244Z,11.43
2022-12-07T13:38:08.552Z,10.15
2022-12-07T13:40:36.140Z,10.65
2022-12-07T13:43:03.346Z,11.02
2022-12-07T13:45:49.412Z,11.70
2022-12-07T13:48:16.846Z,11.50
2022-12-07T13:50:44.009Z,11.65
2022-12-07T13:53:11.297Z,10.95
2022-12-07T13:55:38.557Z,9.82
2022-12-07T13:58:05.805Z,9.07
2022-12-07T14:00:33.342Z,8.82
2022-12-07T14:03:01.005Z,9.98
2022-12-07T14:05:28.258Z,8.35
2022-12-07T14:07:56.128Z,8.65
2022-12-07T14:10:23.488Z,11.38
2022-12-07T14:12:50.701Z,8.40
2022-12-07T14:15:17.993Z,9.25
2022-12-07T14:17:45.246Z,8.93
2022-12-07T14:20:12.407Z,8.40
2022-12-07T14:22:39.749Z,8.25
2022-12-07T14:25:06.904Z,8.07
2022-12-07T14:27:35.088Z,8.63
2022-12-07T14:30:02.630Z,7.88
2022-12-07T14:32:30.149Z,8.45
2022-12-07T14:34:57.392Z,8.00
2022-12-07T14:37:24.592Z,7.85
2022-12-07T14:39:51.848Z,6.63
2022-12-07T14:42:19.047Z,6.30
2022-12-07T14:44:46.351Z,7.85
2022-12-07T14:50:03.399Z,7.82
2022-12-07T14:55:20.849Z,10.07
2022-12-07T14:57:48.099Z,14.15
2022-12-07T15:00:15.352Z,9.98
2022-12-07T15:02:42.495Z,6.15
2022-12-07T15:05:15.414Z,5.18
2022-12-07T15:07:43.446Z,4.93
2022-12-07T15:10:10.654Z,4.88
2022-12-07T15:12:37.861Z,5.78
2022-12-07T15:15:05.365Z,6.05
2022-12-07T15:17:32.923Z,6.03
2022-12-07T15:20:00.227Z,6.18
2022-12-07T15:22:27.534Z,5.53
2022-12-07T15:24:54.760Z,6.53
2022-12-07T15:27:22.064Z,6.28
2022-12-07T15:29:49.312Z,6.53
2022-12-07T15:32:16.604Z,6.90
2022-12-07T15:34:43.889Z,6.35
2022-12-07T15:37:11.252Z,6.10
2022-12-07T15:39:38.539Z,6.13
2022-12-07T15:42:05.812Z,6.60
2022-12-07T15:44:51.742Z,7.05
2022-12-07T15:47:18.922Z,7.07
2022-12-07T15:49:46.153Z,7.70
2022-12-07T15:52:14.049Z,7.80
2022-12-07T15:54:41.328Z,8.20
2022-12-07T15:57:08.567Z,10.02
2022-12-07T15:59:35.806Z,7.50
2022-12-07T16:02:03.187Z,8.95
2022-12-07T16:04:30.795Z,8.95
2022-12-07T16:06:58.075Z,8.70
2022-12-07T16:09:25.378Z,9.20
2022-12-07T16:11:53.243Z,8.20
2022-12-07T16:14:20.534Z,7.45
2022-12-07T16:16:47.674Z,7.78
2022-12-07T16:19:14.941Z,8.20
2022-12-07T16:21:43.262Z,9.88
2022-12-07T16:24:11.218Z,8.07
2022-12-07T16:26:38.420Z,8.32
2022-12-07T16:29:05.843Z,7.20
2022-12-07T16:31:33.100Z,9.25
2022-12-07T16:34:00.492Z,9.10
2022-12-07T16:37:02.051Z,8.38
2022-12-07T16:39:15.754Z,8.95
2022-12-07T16:41:43.048Z,9.10
2022-12-07T16:44:10.338Z,12.90
2022-12-07T16:46:37.617Z,9.95
2022-12-07T16:49:05.084Z,9.13
2022-12-07T16:51:32.391Z,10.50
2022-12-07T16:53:59.785Z,10.43
2022-12-07T16:56:30.221Z,10.43
2022-12-07T16:58:57.453Z,8.65
2022-12-07T17:01:24.667Z,10.60
2022-12-07T17:03:52.120Z,9.68
2022-12-07T17:06:19.340Z,8.82
2022-12-07T17:08:46.635Z,10.18
2022-12-07T17:11:13.866Z,12.45
2022-12-07T17:14:00.089Z,10.70
2022-12-07T17:16:27.543Z,11.32
2022-12-07T17:18:54.957Z,9.50
2022-12-07T17:21:22.225Z,8.77
2022-12-07T17:23:49.995Z,7.72
2022-12-07T17:26:17.219Z,7.35
2022-12-07T17:28:44.448Z,8.32
2022-12-07T17:31:12.010Z,7.55
2022-12-07T17:33:39.200Z,7.35
2022-12-07T17:36:06.441Z,8.73
2022-12-07T17:38:33.775Z,9.60
2022-12-07T17:41:00.960Z,7.28
2022-12-07T17:43:28.109Z,9.10
2022-12-07T17:45:55.793Z,9.13
2022-12-07T17:48:23.147Z,8.68
2022-12-07T17:51:09.299Z,7.68
2022-12-07T17:53:36.836Z,8.48
2022-12-07T17:56:27.634Z,8.60
2022-12-07T17:58:51.603Z,9.50
2022-12-07T18:01:23.663Z,9.48
2022-12-07T18:03:51.511Z,9.98
2022-12-07T18:06:18.820Z,9.63
2022-12-07T18:08:46.051Z,8.70
2022-12-07T18:11:13.245Z,10.40
2022-12-07T18:13:40.813Z,9.18
2022-12-07T18:16:08.021Z,9.80
2022-12-07T18:18:35.388Z,9.70
2022-12-07T18:21:05.677Z,10.25
2022-12-07T18:23:33.857Z,8.95
2022-12-07T18:26:01.554Z,10.18
2022-12-07T18:28:28.996Z,10.18
2022-12-07T18:31:14.874Z,10.50
2022-12-07T18:33:42.701Z,10.07
2022-12-07T18:36:09.865Z,10.52
2022-12-07T18:38:37.112Z,11.00
2022-12-07T18:41:04.328Z,10.95
2022-12-07T18:43:31.596Z,11.80
2022-12-07T18:45:58.772Z,11.70
2022-12-07T18:48:26.284Z,11.63
2022-12-07T18:50:53.457Z,9.98
2022-12-07T18:53:20.667Z,10.02
2022-12-07T18:55:48.111Z,10.60
2022-12-07T18:58:15.332Z,11.27
2022-12-07T19:00:42.619Z,11.68
2022-12-07T19:03:09.886Z,12.70
2022-12-07T19:05:37.063Z,12.43
2022-12-07T19:08:04.878Z,14.23
2022-12-07T19:10:32.114Z,11.00
2022-12-07T19:12:59.464Z,10.75
2022-12-07T19:15:26.634Z,11.57
2022-12-07T19:17:53.965Z,10.50
2022-12-07T19:20:21.151Z,10.40
2022-12-07T19:22:48.385Z,11.05
2022-12-07T19:25:15.561Z,12.20
2022-12-07T19:27:42.766Z,10.93
2022-12-07T19:30:11.424Z,11.40
2022-12-07T19:32:38.731Z,11.45
2022-12-07T19:35:06.215Z,10.50
2022-12-07T19:37:33.622Z,12.30
2022-12-07T19:40:00.895Z,11.73
2022-12-07T19:42:28.228Z,11.13
2022-12-07T19:44:55.358Z,11.77
2022-12-07T19:47:22.559Z,11.95
2022-12-07T19:49:49.702Z,12.13
2022-12-07T19:52:16.940Z,12.52
2022-12-07T19:54:44.187Z,13.15
2022-12-07T19:57:15.818Z,13.63
2022-12-07T19:59:43.164Z,14.07
2022-12-07T20:02:10.431Z,14.20
2022-12-07T20:04:37.694Z,14.10
2022-12-07T20:07:04.984Z,12.13
2022-12-07T20:09:32.219Z,14.45
2022-12-07T20:12:18.250Z,14.85
2022-12-07T20:14:45.522Z,13.75
2022-12-07T20:17:12.712Z,12.93
2022-12-07T20:19:40.123Z,13.55
2022-12-07T20:22:07.320Z,13.68
2022-12-07T20:24:36.185Z,12.70
2022-12-07T20:27:04.112Z,11.82
2022-12-07T20:29:31.334Z,13.77
2022-12-07T20:31:58.612Z,13.77
2022-12-07T20:34:26.527Z,14.55
2022-12-07T20:36:53.778Z,14.73
2022-12-07T20:39:23.353Z,16.02
2022-12-07T20:42:09.562Z,18.73
2022-12-07T20:44:36.834Z,18.63
2022-12-07T20:47:04.137Z,16.35
2022-12-07T20:49:31.400Z,16.80
2022-12-07T20:51:58.552Z,15.65
2022-12-07T20:54:25.812Z,16.35
2022-12-07T20:56:52.989Z,14.73
2022-12-07T20:59:20.448Z,15.32
2022-12-07T21:01:48.489Z,15.13
2022-12-07T21:04:15.905Z,16.90
2022-12-07T21:06:43.124Z,13.52
2022-12-07T21:09:10.359Z,15.43
2022-12-07T21:11:37.786Z,15.00
2022-12-07T21:14:05.000Z,15.13
2022-12-07T21:16:32.400Z,15.35
2022-12-07T21:19:02.562Z,15.25
2022-12-07T21:21:29.981Z,15.02
2022-12-07T21:24:02.070Z,16.35
2022-12-07T21:26:30.301Z,14.48
2022-12-07T21:28:57.716Z,15.80
2022-12-07T21:31:25.096Z,14.93
2022-12-07T21:33:52.458Z,16.13
2022-12-07T21:36:19.964Z,15.75
2022-12-07T21:38:47.158Z,15.43
2022-12-07T21:41:14.691Z,16.80
2022-12-07T21:43:41.852Z,14.98
2022-12-07T21:46:09.101Z,18.95
2022-12-07T21:48:36.349Z,16.20
2022-12-07T21:51:03.641Z,18.15
2022-12-07T21:53:30.969Z,18.08
2022-12-07T21:55:58.224Z,19.17
2022-12-07T21:58:25.780Z,18.98
2022-12-07T22:00:53.270Z,18.05
2022-12-07T22:03:20.633Z,18.52
2022-12-07T22:05:47.873Z,18.73
2022-12-07T22:08:15.146Z,19.85
2022-12-07T22:10:42.989Z,20.45
2022-12-07T22:13:10.293Z,22.60
2022-12-07T22:15:37.456Z,21.77
2022-12-07T22:18:04.803Z,19.85
2022-12-07T22:20:32.012Z,22.27
2022-12-07T22:22:59.181Z,21.63
2022-12-07T22:25:26.347Z,23.20
2022-12-07T22:27:53.568Z,25.80
2022-12-07T22:30:21.062Z,22.42
2022-12-07T22:32:49.426Z,19.10
2022-12-07T22:35:16.877Z,19.08
2022-12-07T22:37:44.190Z,21.65
2022-12-07T22:40:12.096Z,19.60
2022-12-07T22:42:39.473Z,18.65
2022-12-07T22:45:06.774Z,17.98
2022-12-07T22:47:34.192Z,17.20
2022-12-07T22:50:01.321Z,16.98
2022-12-07T22:52:28.593Z,19.55
2022-12-07T22:54:55.810Z,18.10
2022-12-07T22:57:23.138Z,18.75
2022-12-07T22:59:50.435Z,19.52
2022-12-07T23:02:18.052Z,20.35
2022-12-07T23:04:45.295Z,18.92
2022-12-07T23:07:14.936Z,19.38
2022-12-07T23:09:42.361Z,20.10
2022-12-07T23:12:28.270Z,19.50
2022-12-07T23:14:55.775Z,18.90
2022-12-07T23:17:22.926Z,18.77
2022-12-07T23:19:54.226Z,19.33
2022-12-07T23:22:23.123Z,20.52
2022-12-07T23:24:50.271Z,19.30
2022-12-07T23:27:17.436Z,20.98
2022-12-07T23:29:44.933Z,19.73
2022-12-07T23:32:12.137Z,21.08
2022-12-07T23:34:39.321Z,20.45
2022-12-07T23:37:06.872Z,20.95
2022-12-07T23:39:34.106Z,20.98
2022-12-07T23:42:01.395Z,18.75
2022-12-07T23:44:28.579Z,19.88
2022-12-07T23:46:55.839Z,17.33
2022-12-07T23:49:23.096Z,17.45
2022-12-07T23:51:50.239Z,17.63
2022-12-07T23:54:17.446Z,18.73
2022-12-07T23:56:44.597Z,18.30
2022-12-07T23:59:12.400Z,20.70
